createdAt,value
2019-04-25T00:00:16.445Z,85.46
2019-04-25T00:01:16.393Z,85.72
2019-04-25T00:02:16.449Z,86.12
2019-04-25T00:03:16.380Z,86.12
2019-04-25T00:04:16.466Z,86.07
2019-04-25T00:05:16.392Z,86.09
2019-04-25T00:06:16.397Z,85.93
2019-04-25T00:07:16.372Z,85.77
2019-04-25T00:08:16.409Z,85.35
2019-04-25T00:09:16.465Z,85.19
2019-04-25T00:10:16.411Z,85.32
2019-04-25T00:11:16.438Z,85.35
2019-04-25T00:12:16.503Z,85.48
2019-04-25T00:13:16.396Z,85.58
2019-04-25T00:14:16.402Z,85.58
2019-04-25T00:15:16.471Z,85.69
2019-04-25T00:16:16.491Z,85.85
2019-04-25T00:17:16.406Z,85.69
2019-04-25T00:18:16.413Z,85.64
2019-04-25T00:19:16.472Z,85.40
2019-04-25T00:20:16.408Z,85.13
2019-04-25T00:21:16.402Z,85.03
2019-04-25T00:22:16.475Z,84.81
2019-04-25T00:23:16.483Z,84.81
2019-04-25T00:24:16.465Z,84.84
2019-04-25T00:25:17.920Z,85.08
2019-04-25T00:26:16.406Z,85.21
2019-04-25T00:27:16.466Z,85.48
2019-04-25T00:28:16.399Z,85.58
2019-04-25T00:29:16.468Z,85.91
2019-04-25T00:30:16.410Z,86.04
2019-04-25T00:31:16.408Z,86.17
2019-04-25T00:32:16.468Z,86.44
2019-04-25T00:33:16.475Z,86.52
2019-04-25T00:34:16.415Z,86.65
2019-04-25T00:35:16.414Z,87.05
2019-04-25T00:36:16.418Z,87.16
2019-04-25T00:37:16.499Z,87.40
2019-04-25T00:38:16.430Z,87.67
2019-04-25T00:39:16.424Z,88.09
2019-04-25T00:40:16.512Z,88.68
2019-04-25T00:41:16.503Z,89.29
2019-04-25T00:42:16.423Z,90.02
2019-04-25T00:43:16.500Z,90.42
2019-04-25T00:44:16.367Z,90.80
2019-04-25T00:45:16.504Z,91.07
2019-04-25T00:46:16.479Z,91.25
2019-04-25T00:47:16.419Z,91.63
2019-04-25T00:48:16.480Z,92.14
2019-04-25T00:49:16.501Z,92.57
2019-04-25T00:50:16.456Z,92.70
2019-04-25T00:51:16.420Z,92.95
2019-04-25T00:52:16.483Z,93.26
2019-04-25T00:53:16.424Z,93.67
2019-04-25T00:54:16.431Z,93.94
2019-04-25T00:55:26.167Z,94.34
2019-04-25T00:56:16.479Z,94.69
2019-04-25T00:57:16.487Z,95.20
2019-04-25T00:58:16.479Z,95.61
2019-04-25T00:59:16.432Z,96.09
2019-04-25T01:00:16.420Z,96.39
2019-04-25T01:01:16.428Z,96.80
2019-04-25T01:02:16.394Z,97.10
2019-04-25T01:03:16.489Z,97.34
2019-04-25T01:04:16.496Z,97.58
2019-04-25T01:05:16.391Z,97.80
2019-04-25T01:06:16.511Z,98.02
2019-04-25T01:07:16.436Z,98.37
2019-04-25T01:08:16.499Z,98.69
2019-04-25T01:09:16.437Z,99.10
2019-04-25T01:10:16.516Z,99.34
2019-04-25T01:11:16.444Z,99.51
2019-04-25T01:12:16.452Z,99.43
2019-04-25T01:13:16.442Z,99.34
2019-04-25T01:14:16.483Z,99.18
2019-04-25T01:15:16.426Z,99.07
2019-04-25T01:16:16.440Z,98.80
2019-04-25T01:17:16.435Z,98.21
2019-04-25T01:18:16.513Z,97.72
2019-04-25T01:19:16.438Z,97.07
2019-04-25T01:20:16.514Z,96.42
2019-04-25T01:21:16.508Z,95.75
2019-04-25T01:22:16.439Z,95.20
2019-04-25T01:23:16.439Z,94.80
2019-04-25T01:24:16.505Z,94.53
2019-04-25T01:25:16.458Z,94.45
2019-04-25T01:26:16.454Z,94.23
2019-04-25T01:27:16.543Z,94.04
2019-04-25T01:28:16.450Z,93.85
2019-04-25T01:29:16.535Z,93.64
2019-04-25T01:30:16.459Z,93.43
2019-04-25T01:31:16.513Z,93.59
2019-04-25T01:32:16.482Z,93.62
2019-04-25T01:33:16.519Z,93.70
2019-04-25T01:34:16.459Z,93.78
2019-04-25T01:35:16.405Z,94.07
2019-04-25T01:36:16.508Z,94.23
2019-04-25T01:37:16.524Z,94.45
2019-04-25T01:38:16.430Z,94.42
2019-04-25T01:39:16.477Z,94.42
2019-04-25T01:40:16.425Z,94.48
2019-04-25T01:41:16.519Z,94.42
2019-04-25T01:42:16.449Z,94.34
2019-04-25T01:43:16.408Z,94.40
2019-04-25T01:44:16.424Z,94.53
2019-04-25T01:45:16.552Z,94.64
2019-04-25T01:46:16.538Z,94.91
2019-04-25T01:47:16.498Z,95.10
2019-04-25T01:48:16.542Z,95.39
2019-04-25T01:49:16.466Z,95.66
2019-04-25T01:50:16.542Z,95.91
2019-04-25T01:51:16.465Z,95.98
2019-04-25T01:52:16.470Z,96.07
2019-04-25T01:53:16.485Z,96.28
2019-04-25T01:54:16.469Z,96.42
2019-04-25T01:55:16.544Z,96.45
2019-04-25T01:56:16.480Z,96.47
2019-04-25T01:57:16.543Z,96.47
2019-04-25T01:58:16.545Z,96.55
2019-04-25T01:59:16.474Z,96.45
2019-04-25T02:00:16.486Z,96.45
2019-04-25T02:01:16.537Z,96.42
2019-04-25T02:02:16.559Z,96.53
2019-04-25T02:03:16.546Z,96.55
2019-04-25T02:04:16.494Z,96.55
2019-04-25T02:05:16.557Z,96.58
2019-04-25T02:06:16.588Z,96.72
2019-04-25T02:07:16.517Z,96.72
2019-04-25T02:08:16.562Z,96.80
2019-04-25T02:09:16.500Z,96.91
2019-04-25T02:10:16.437Z,97.12
2019-04-25T02:11:16.562Z,97.31
2019-04-25T02:12:16.564Z,97.69
2019-04-25T02:13:16.570Z,98.02
2019-04-25T02:14:16.570Z,98.29
2019-04-25T02:15:16.509Z,98.53
2019-04-25T02:16:16.504Z,98.66
2019-04-25T02:17:16.551Z,98.72
2019-04-25T02:18:16.504Z,98.83
2019-04-25T02:19:16.493Z,98.99
2019-04-25T02:20:16.488Z,99.18
2019-04-25T02:21:16.489Z,99.40
2019-04-25T02:22:16.568Z,99.62
2019-04-25T02:23:16.494Z,99.81
2019-04-25T02:24:16.524Z,99.99
2019-04-25T02:25:16.480Z,99.99
2019-04-25T02:26:18.579Z,99.99
2019-04-25T02:27:16.476Z,99.99
2019-04-25T02:28:16.609Z,99.99
2019-04-25T02:29:16.559Z,99.99
2019-04-25T02:30:16.528Z,99.99
2019-04-25T02:31:18.331Z,99.99
2019-04-25T02:32:16.458Z,99.99
2019-04-25T02:33:16.499Z,99.99
2019-04-25T02:34:18.144Z,99.99
2019-04-25T02:35:16.530Z,99.99
2019-04-25T02:36:16.463Z,99.99
2019-04-25T02:37:16.465Z,99.99
2019-04-25T02:38:16.983Z,99.99
2019-04-25T02:39:16.525Z,99.99
2019-04-25T02:40:16.495Z,99.99
2019-04-25T02:41:16.558Z,99.99
2019-04-25T02:42:17.008Z,99.99
2019-04-25T02:43:16.518Z,99.99
2019-04-25T02:44:16.515Z,99.99
2019-04-25T02:45:16.815Z,99.99
2019-04-25T02:46:16.521Z,99.99
2019-04-25T02:47:16.594Z,99.99
2019-04-25T02:48:16.515Z,99.99
2019-04-25T02:49:29.781Z,99.99
2019-04-25T02:50:16.591Z,99.99
2019-04-25T02:51:16.601Z,99.99
2019-04-25T02:52:18.133Z,99.99
2019-04-25T02:53:16.526Z,99.99
2019-04-25T02:54:16.584Z,99.99
2019-04-25T02:55:30.999Z,99.99
2019-04-25T02:56:30.464Z,99.99
2019-04-25T02:57:16.596Z,99.99
2019-04-25T02:58:16.516Z,99.99
2019-04-25T02:59:16.606Z,99.99
2019-04-25T03:00:16.593Z,99.99
2019-04-25T03:01:22.267Z,99.99
2019-04-25T03:02:16.519Z,99.99
2019-04-25T03:03:16.601Z,99.99
2019-04-25T03:04:16.616Z,99.99
2019-04-25T03:05:16.527Z,99.99
2019-04-25T03:06:16.514Z,99.99
2019-04-25T03:07:17.554Z,99.99
2019-04-25T03:08:16.590Z,99.99
2019-04-25T03:09:16.519Z,99.99
2019-04-25T03:10:16.592Z,99.99
2019-04-25T03:11:16.514Z,99.99
2019-04-25T03:12:29.076Z,99.99
2019-04-25T03:13:16.529Z,99.99
2019-04-25T03:14:16.540Z,99.99
2019-04-25T03:15:16.660Z,99.99
2019-04-25T03:16:16.606Z,99.99
2019-04-25T03:17:16.534Z,99.99
2019-04-25T03:18:16.606Z,99.99
2019-04-25T03:19:16.607Z,99.99
2019-04-25T03:20:16.619Z,99.99
2019-04-25T03:21:17.621Z,99.99
2019-04-25T03:22:16.619Z,99.99
2019-04-25T03:23:16.626Z,99.99
2019-04-25T03:24:17.055Z,99.99
2019-04-25T03:25:17.666Z,99.99
2019-04-25T03:26:16.614Z,99.99
2019-04-25T03:27:16.536Z,99.99
2019-04-25T03:28:16.605Z,99.99
2019-04-25T03:29:16.617Z,99.99
2019-04-25T03:30:17.790Z,99.99
2019-04-25T03:31:22.578Z,99.99
2019-04-25T03:32:19.897Z,99.99
2019-04-25T03:33:19.563Z,99.99
2019-04-25T03:34:20.393Z,99.99
2019-04-25T03:35:16.556Z,99.99
2019-04-25T03:36:17.145Z,99.99
2019-04-25T03:37:16.545Z,99.99
2019-04-25T03:38:16.628Z,99.99
2019-04-25T03:39:16.677Z,99.99
2019-04-25T03:40:16.631Z,99.99
2019-04-25T03:41:16.621Z,99.99
2019-04-25T03:42:16.550Z,99.99
2019-04-25T03:43:16.614Z,99.99
2019-04-25T03:44:16.558Z,99.99
2019-04-25T03:45:16.611Z,99.99
2019-04-25T03:46:16.617Z,99.99
2019-04-25T03:47:16.539Z,99.99
2019-04-25T03:48:16.616Z,99.99
2019-04-25T03:49:16.616Z,99.99
2019-04-25T03:50:16.552Z,99.99
2019-04-25T03:51:16.616Z,99.99
2019-04-25T03:52:16.614Z,99.99
2019-04-25T03:53:16.548Z,99.99
2019-04-25T03:54:16.615Z,99.99
2019-04-25T03:55:16.628Z,99.99
2019-04-25T03:56:16.637Z,99.99
2019-04-25T03:57:16.636Z,99.99
2019-04-25T03:58:16.561Z,99.99
2019-04-25T03:59:16.635Z,99.99
2019-04-25T04:00:16.560Z,99.99
2019-04-25T04:01:16.632Z,99.99
2019-04-25T04:02:16.562Z,99.99
2019-04-25T04:03:16.698Z,99.99
2019-04-25T04:04:16.565Z,99.99
2019-04-25T04:05:16.572Z,99.99
2019-04-25T04:06:16.645Z,99.99
2019-04-25T04:07:16.570Z,99.99
2019-04-25T04:08:16.565Z,99.99
2019-04-25T04:09:16.606Z,99.99
2019-04-25T04:10:16.641Z,99.99
2019-04-25T04:11:16.673Z,99.99
2019-04-25T04:12:16.581Z,99.99
2019-04-25T04:13:16.589Z,99.99
2019-04-25T04:14:16.573Z,99.99
2019-04-25T04:15:16.588Z,99.99
2019-04-25T04:16:16.647Z,99.99
2019-04-25T04:17:16.663Z,99.99
2019-04-25T04:18:17.370Z,99.99
2019-04-25T04:19:16.654Z,99.99
2019-04-25T04:20:16.578Z,99.99
2019-04-25T04:21:17.393Z,99.99
2019-04-25T04:22:16.576Z,99.99
2019-04-25T04:23:16.597Z,99.99
2019-04-25T04:24:16.577Z,99.99
2019-04-25T04:25:16.588Z,99.99
2019-04-25T04:26:16.578Z,99.99
2019-04-25T04:27:16.830Z,99.99
2019-04-25T04:28:16.583Z,99.99
2019-04-25T04:29:16.674Z,99.99
2019-04-25T04:30:16.649Z,99.99
2019-04-25T04:31:16.666Z,99.99
2019-04-25T04:32:17.388Z,99.99
2019-04-25T04:33:29.599Z,99.99
2019-04-25T04:34:16.981Z,99.99
2019-04-25T04:35:17.432Z,99.99
2019-04-25T04:36:17.753Z,99.99
2019-04-25T04:37:17.507Z,99.99
2019-04-25T04:38:16.656Z,99.99
2019-04-25T04:39:17.739Z,99.99
2019-04-25T04:40:17.634Z,99.99
2019-04-25T04:41:16.595Z,99.99
2019-04-25T04:42:16.659Z,99.99
2019-04-25T04:43:16.667Z,99.99
2019-04-25T04:44:16.599Z,99.99
2019-04-25T04:45:16.676Z,99.99
2019-04-25T04:46:18.441Z,99.99
2019-04-25T04:47:16.713Z,99.99
2019-04-25T04:48:16.764Z,99.99
2019-04-25T04:49:16.666Z,99.99
2019-04-25T04:50:16.732Z,99.99
2019-04-25T04:51:16.944Z,99.99
2019-04-25T04:52:16.987Z,99.99
2019-04-25T04:53:17.213Z,99.99
2019-04-25T04:54:17.127Z,99.99
2019-04-25T04:55:17.595Z,99.99
2019-04-25T04:56:17.561Z,99.99
2019-04-25T04:57:27.852Z,99.99
2019-04-25T04:58:17.650Z,99.99
2019-04-25T04:59:16.649Z,99.99
2019-04-25T05:00:16.922Z,99.99
2019-04-25T05:01:16.726Z,99.99
2019-04-25T05:02:17.382Z,99.99
2019-04-25T05:03:16.948Z,99.99
2019-04-25T05:04:17.164Z,99.99
2019-04-25T05:05:17.159Z,99.99
2019-04-25T05:06:17.367Z,99.99
2019-04-25T05:07:17.460Z,99.99
2019-04-25T05:08:17.295Z,99.99
2019-04-25T05:09:16.613Z,99.99
2019-04-25T05:10:18.658Z,99.99
2019-04-25T05:11:17.046Z,99.99
2019-04-25T05:12:17.445Z,99.99
2019-04-25T05:13:17.074Z,99.99
2019-04-25T05:14:17.405Z,99.99
2019-04-25T05:15:17.907Z,99.99
2019-04-25T05:16:17.677Z,99.99
2019-04-25T05:17:16.552Z,99.99
2019-04-25T05:18:31.599Z,99.99
2019-04-25T05:19:16.837Z,99.99
2019-04-25T05:20:17.829Z,99.99
2019-04-25T05:21:17.129Z,99.99
2019-04-25T05:22:16.865Z,99.99
2019-04-25T05:23:17.129Z,99.99
2019-04-25T05:24:17.348Z,99.99
2019-04-25T05:25:17.737Z,99.99
2019-04-25T05:26:17.173Z,99.99
2019-04-25T05:27:30.600Z,99.99
2019-04-25T05:28:18.159Z,99.99
2019-04-25T05:29:21.021Z,99.99
2019-04-25T05:30:17.707Z,99.99
2019-04-25T05:31:17.286Z,99.99
2019-04-25T05:32:17.286Z,99.99
2019-04-25T05:33:19.724Z,99.99
2019-04-25T05:34:17.243Z,99.99
2019-04-25T05:35:16.590Z,99.99
2019-04-25T05:36:17.554Z,99.99
2019-04-25T05:37:17.537Z,99.99
2019-04-25T05:38:17.605Z,99.99
2019-04-25T05:39:18.078Z,99.99
2019-04-25T05:40:17.170Z,99.99
2019-04-25T05:41:16.898Z,99.99
2019-04-25T05:42:17.221Z,99.99
2019-04-25T05:43:16.620Z,99.72
2019-04-25T05:44:16.917Z,99.43
2019-04-25T05:45:18.548Z,99.10
2019-04-25T05:46:16.907Z,98.77
2019-04-25T05:47:17.452Z,98.59
2019-04-25T05:48:17.197Z,98.55
2019-04-25T05:49:17.165Z,98.34
2019-04-25T05:50:16.622Z,97.99
2019-04-25T05:51:17.412Z,97.45
2019-04-25T05:52:17.514Z,96.61
2019-04-25T05:53:17.687Z,96.04
2019-04-25T05:54:16.702Z,95.34
2019-04-25T05:55:18.991Z,94.40
2019-04-25T05:56:16.617Z,93.62
2019-04-25T05:57:16.678Z,93.32
2019-04-25T05:58:16.930Z,92.97
2019-04-25T05:59:17.927Z,92.57
2019-04-25T06:00:17.949Z,92.16
2019-04-25T06:01:17.203Z,91.79
2019-04-25T06:02:17.795Z,91.30
2019-04-25T06:03:17.267Z,91.28
2019-04-25T06:04:17.849Z,91.20
2019-04-25T06:05:17.435Z,89.94
2019-04-25T06:06:17.551Z,88.44
2019-04-25T06:07:17.902Z,87.96
2019-04-25T06:08:17.468Z,87.40
2019-04-25T06:09:17.597Z,86.87
2019-04-25T06:10:17.404Z,86.01
2019-04-25T06:11:17.911Z,85.38
2019-04-25T06:12:18.110Z,85.48
2019-04-25T06:13:17.356Z,85.32
2019-04-25T06:14:18.283Z,84.89
2019-04-25T06:15:18.328Z,84.07
2019-04-25T06:16:16.707Z,82.75
2019-04-25T06:17:16.585Z,82.08
2019-04-25T06:18:16.650Z,81.79
2019-04-25T06:19:19.605Z,81.40
2019-04-25T06:20:16.611Z,79.86
2019-04-25T06:21:16.646Z,81.29
2019-04-25T06:22:16.616Z,81.66
2019-04-25T06:23:16.682Z,81.32
2019-04-25T06:24:16.702Z,82.43
2019-04-25T06:25:16.682Z,80.81
2019-04-25T06:26:24.834Z,80.26
2019-04-25T06:27:16.660Z,79.71
2019-04-25T06:28:16.612Z,79.68
2019-04-25T06:29:16.755Z,79.49
2019-04-25T06:30:16.677Z,79.44
2019-04-25T06:31:16.603Z,79.36
2019-04-25T06:32:16.731Z,78.91
2019-04-25T06:33:16.692Z,78.57
2019-04-25T06:34:16.731Z,78.28
2019-04-25T06:35:16.738Z,78.20
2019-04-25T06:36:16.674Z,76.99
2019-04-25T06:37:16.694Z,77.15
2019-04-25T06:38:16.713Z,77.36
2019-04-25T06:39:16.675Z,77.57
2019-04-25T06:40:16.680Z,76.04
2019-04-25T06:41:16.746Z,76.94
2019-04-25T06:42:16.683Z,76.04
2019-04-25T06:43:16.691Z,75.70
2019-04-25T06:44:16.683Z,75.57
2019-04-25T06:45:16.747Z,74.76
2019-04-25T06:46:16.683Z,74.47
2019-04-25T06:47:16.826Z,73.16
2019-04-25T06:48:16.684Z,72.95
2019-04-25T06:49:16.689Z,74.18
2019-04-25T06:50:16.685Z,74.66
2019-04-25T06:51:16.689Z,74.71
2019-04-25T06:52:16.751Z,73.35
2019-04-25T06:53:16.686Z,73.37
2019-04-25T06:54:16.754Z,73.53
2019-04-25T06:55:16.753Z,74.60
2019-04-25T06:56:16.748Z,71.57
2019-04-25T06:57:16.690Z,70.56
2019-04-25T06:58:16.753Z,70.24
2019-04-25T06:59:16.749Z,71.18
2019-04-25T07:00:16.691Z,70.87
2019-04-25T07:01:16.679Z,69.88
2019-04-25T07:02:16.752Z,70.53
2019-04-25T07:03:16.757Z,70.04
2019-04-25T07:04:16.666Z,69.18
2019-04-25T07:05:26.520Z,68.35
2019-04-25T07:06:16.775Z,68.53
2019-04-25T07:07:16.694Z,68.76
2019-04-25T07:08:16.766Z,68.81
2019-04-25T07:09:16.779Z,68.97
2019-04-25T07:10:16.792Z,69.65
2019-04-25T07:11:16.712Z,68.74
2019-04-25T07:12:16.705Z,70.40
2019-04-25T07:13:16.788Z,70.89
2019-04-25T07:14:16.770Z,69.46
2019-04-25T07:15:16.776Z,70.50
2019-04-25T07:16:16.771Z,66.22
2019-04-25T07:17:16.775Z,66.22
2019-04-25T07:18:16.773Z,65.91
2019-04-25T07:19:17.610Z,66.30
2019-04-25T07:20:16.710Z,66.01
2019-04-25T07:21:16.711Z,64.82
2019-04-25T07:22:16.713Z,64.29
2019-04-25T07:23:16.776Z,62.48
2019-04-25T07:24:17.580Z,62.82
2019-04-25T07:25:16.776Z,62.94
2019-04-25T07:26:16.781Z,62.14
2019-04-25T07:27:16.714Z,63.02
2019-04-25T07:28:24.193Z,65.08
2019-04-25T07:29:16.715Z,65.96
2019-04-25T07:30:26.944Z,64.00
2019-04-25T07:31:16.786Z,63.35
2019-04-25T07:32:16.786Z,61.76
2019-04-25T07:33:16.715Z,60.94
2019-04-25T07:34:16.788Z,62.10
2019-04-25T07:35:16.792Z,62.56
2019-04-25T07:36:16.720Z,60.20
2019-04-25T07:37:16.789Z,60.89
2019-04-25T07:38:16.793Z,58.94
2019-04-25T07:39:16.722Z,60.97
2019-04-25T07:40:16.790Z,58.71
2019-04-25T07:41:16.792Z,59.50
2019-04-25T07:42:16.799Z,59.12
2019-04-25T07:43:16.784Z,59.35
2019-04-25T07:44:16.826Z,59.02
2019-04-25T07:45:16.796Z,61.38
2019-04-25T07:46:16.797Z,58.59
2019-04-25T07:47:16.731Z,59.00
2019-04-25T07:48:16.797Z,58.59
2019-04-25T07:49:16.794Z,59.84
2019-04-25T07:50:16.796Z,57.97
2019-04-25T07:51:16.798Z,58.04
2019-04-25T07:52:16.798Z,58.33
2019-04-25T07:53:16.802Z,57.51
2019-04-25T07:54:16.798Z,58.40
2019-04-25T07:55:16.857Z,59.43
2019-04-25T07:56:16.729Z,57.00
2019-04-25T07:57:16.783Z,58.07
2019-04-25T07:58:16.726Z,59.25
2019-04-25T07:59:16.797Z,55.70
2019-04-25T08:00:16.719Z,54.81
2019-04-25T08:01:16.793Z,56.13
2019-04-25T08:02:16.738Z,56.77
2019-04-25T08:03:16.744Z,55.80
2019-04-25T08:04:16.721Z,56.03
2019-04-25T08:05:16.731Z,58.15
2019-04-25T08:06:16.808Z,59.53
2019-04-25T08:07:16.845Z,57.64
2019-04-25T08:08:16.810Z,57.33
2019-04-25T08:09:16.742Z,55.52
2019-04-25T08:10:16.813Z,57.92
2019-04-25T08:11:16.740Z,55.14
2019-04-25T08:12:16.755Z,55.37
2019-04-25T08:13:16.757Z,55.52
2019-04-25T08:14:16.745Z,56.46
2019-04-25T08:15:16.826Z,57.18
2019-04-25T08:16:16.734Z,54.58
2019-04-25T08:17:16.730Z,54.02
2019-04-25T08:18:16.807Z,54.50
2019-04-25T08:19:16.816Z,53.31
2019-04-25T08:20:16.813Z,52.75
2019-04-25T08:21:16.720Z,51.87
2019-04-25T08:22:16.730Z,52.27
2019-04-25T08:23:16.809Z,51.08
2019-04-25T08:24:16.842Z,52.25
2019-04-25T08:25:16.724Z,50.88
2019-04-25T08:26:16.757Z,51.41
2019-04-25T08:27:16.826Z,52.60
2019-04-25T08:28:16.828Z,52.93
2019-04-25T08:29:16.825Z,53.31
2019-04-25T08:30:16.760Z,51.33
2019-04-25T08:31:16.833Z,51.46
2019-04-25T08:32:16.761Z,51.95
2019-04-25T08:33:16.830Z,50.93
2019-04-25T08:34:16.759Z,49.92
2019-04-25T08:35:16.833Z,50.30
2019-04-25T08:36:16.747Z,50.15
2019-04-25T08:37:18.983Z,51.04
2019-04-25T08:38:16.827Z,51.49
2019-04-25T08:39:16.823Z,51.84
2019-04-25T08:40:16.826Z,53.09
2019-04-25T08:41:16.763Z,52.50
2019-04-25T08:42:16.769Z,52.96
2019-04-25T08:43:16.835Z,51.29
2019-04-25T08:44:16.755Z,51.99
2019-04-25T08:45:16.837Z,51.92
2019-04-25T08:46:16.711Z,52.83
2019-04-25T08:47:16.823Z,52.60
2019-04-25T08:48:16.714Z,52.15
2019-04-25T08:49:16.801Z,51.33
2019-04-25T08:50:26.954Z,52.63
2019-04-25T08:51:16.829Z,52.88
2019-04-25T08:52:16.836Z,52.32
2019-04-25T08:53:16.825Z,53.11
2019-04-25T08:54:16.744Z,52.35
2019-04-25T08:55:16.715Z,52.63
2019-04-25T08:56:16.847Z,52.50
2019-04-25T08:57:16.846Z,53.03
2019-04-25T08:58:16.788Z,53.26
2019-04-25T08:59:16.848Z,52.53
2019-04-25T09:00:16.851Z,51.57
2019-04-25T09:01:16.854Z,51.66
2019-04-25T09:02:16.780Z,50.96
2019-04-25T09:03:16.853Z,51.06
2019-04-25T09:04:16.784Z,51.46
2019-04-25T09:05:16.856Z,50.68
2019-04-25T09:06:16.825Z,52.63
2019-04-25T09:07:16.757Z,48.74
2019-04-25T09:08:16.842Z,48.99
2019-04-25T09:09:16.832Z,48.61
2019-04-25T09:10:16.724Z,47.78
2019-04-25T09:11:16.845Z,47.88
2019-04-25T09:12:16.787Z,48.48
2019-04-25T09:13:16.740Z,48.51
2019-04-25T09:14:16.724Z,49.02
2019-04-25T09:15:16.843Z,46.27
2019-04-25T09:16:16.789Z,48.86
2019-04-25T09:17:16.855Z,46.75
2019-04-25T09:18:16.927Z,47.13
2019-04-25T09:19:16.869Z,47.98
2019-04-25T09:20:16.880Z,46.02
2019-04-25T09:21:16.866Z,46.45
2019-04-25T09:22:16.868Z,47.78
2019-04-25T09:23:16.793Z,46.45
2019-04-25T09:24:16.796Z,45.62
2019-04-25T09:25:16.800Z,46.58
2019-04-25T09:26:16.880Z,46.68
2019-04-25T09:27:16.799Z,47.08
2019-04-25T09:28:16.870Z,45.52
2019-04-25T09:29:19.785Z,45.90
2019-04-25T09:30:16.801Z,47.45
2019-04-25T09:31:16.870Z,46.68
2019-04-25T09:32:16.939Z,46.95
2019-04-25T09:33:16.870Z,45.62
2019-04-25T09:34:16.871Z,45.57
2019-04-25T09:35:16.875Z,44.00
2019-04-25T09:36:16.874Z,45.00
2019-04-25T09:37:16.764Z,44.17
2019-04-25T09:38:16.877Z,45.43
2019-04-25T09:39:16.805Z,44.27
2019-04-25T09:40:16.879Z,45.52
2019-04-25T09:41:16.812Z,44.90
2019-04-25T09:42:16.846Z,45.43
2019-04-25T09:43:16.817Z,46.32
2019-04-25T09:44:16.882Z,44.43
2019-04-25T09:45:16.908Z,44.05
2019-04-25T09:46:16.825Z,44.97
2019-04-25T09:47:16.886Z,44.22
2019-04-25T09:48:16.827Z,44.27
2019-04-25T09:49:16.888Z,44.45
2019-04-25T09:50:16.898Z,44.85
2019-04-25T09:51:16.815Z,44.90
2019-04-25T09:52:16.814Z,45.35
2019-04-25T09:53:23.633Z,44.82
2019-04-25T09:54:16.897Z,45.15
2019-04-25T09:55:16.831Z,45.95
2019-04-25T09:56:16.896Z,45.50
2019-04-25T09:57:16.887Z,42.87
2019-04-25T09:58:16.832Z,43.70
2019-04-25T09:59:26.810Z,41.98
2019-04-25T10:00:16.897Z,44.20
2019-04-25T10:01:16.843Z,43.82
2019-04-25T10:02:16.899Z,44.64
2019-04-25T10:03:16.834Z,43.60
2019-04-25T10:04:16.894Z,43.10
2019-04-25T10:05:16.892Z,42.50
2019-04-25T10:06:16.831Z,43.02
2019-04-25T10:07:16.833Z,44.72
2019-04-25T10:08:16.829Z,43.92
2019-04-25T10:09:16.827Z,44.15
2019-04-25T10:10:16.957Z,46.18
2019-04-25T10:11:16.833Z,45.43
2019-04-25T10:12:16.905Z,45.40
2019-04-25T10:13:16.841Z,45.25
2019-04-25T10:14:16.925Z,45.65
2019-04-25T10:15:16.831Z,45.37
2019-04-25T10:16:16.774Z,45.22
2019-04-25T10:17:16.763Z,45.30
2019-04-25T10:18:16.824Z,45.27
2019-04-25T10:19:16.820Z,43.65
2019-04-25T10:20:16.834Z,43.65
2019-04-25T10:21:16.896Z,44.30
2019-04-25T10:22:16.888Z,43.55
2019-04-25T10:23:16.802Z,41.13
2019-04-25T10:24:16.848Z,42.45
2019-04-25T10:25:16.779Z,40.16
2019-04-25T10:26:16.907Z,43.10
2019-04-25T10:27:16.904Z,45.82
2019-04-25T10:28:16.825Z,40.73
2019-04-25T10:29:16.831Z,41.10
2019-04-25T10:30:21.643Z,43.33
2019-04-25T10:31:16.908Z,42.78
2019-04-25T10:32:16.904Z,41.35
2019-04-25T10:33:16.906Z,40.98
2019-04-25T10:34:16.832Z,41.48
2019-04-25T10:35:16.842Z,39.84
2019-04-25T10:36:16.849Z,42.65
2019-04-25T10:37:16.863Z,38.55
2019-04-25T10:38:16.919Z,38.63
2019-04-25T10:39:16.884Z,38.30
2019-04-25T10:40:16.919Z,38.63
2019-04-25T10:41:16.860Z,38.75
2019-04-25T10:42:16.926Z,40.11
2019-04-25T10:43:16.923Z,38.70
2019-04-25T10:44:16.923Z,39.29
2019-04-25T10:45:23.116Z,39.84
2019-04-25T10:46:16.928Z,39.91
2019-04-25T10:47:16.860Z,38.97
2019-04-25T10:48:16.867Z,37.91
2019-04-25T10:49:16.856Z,40.21
2019-04-25T10:50:16.883Z,39.07
2019-04-25T10:51:16.930Z,39.42
2019-04-25T10:52:16.866Z,38.94
2019-04-25T10:53:16.929Z,38.77
2019-04-25T10:54:16.901Z,37.68
2019-04-25T10:55:16.869Z,37.44
2019-04-25T10:56:16.857Z,37.83
2019-04-25T10:57:16.941Z,36.97
2019-04-25T10:58:16.861Z,36.87
2019-04-25T10:59:16.921Z,38.52
2019-04-25T11:00:16.806Z,38.08
2019-04-25T11:01:16.826Z,38.03
2019-04-25T11:02:16.964Z,38.45
2019-04-25T11:03:16.863Z,38.50
2019-04-25T11:04:16.867Z,37.68
2019-04-25T11:05:16.932Z,38.80
2019-04-25T11:06:16.931Z,36.84
2019-04-25T11:07:16.855Z,36.64
2019-04-25T11:08:17.011Z,37.34
2019-04-25T11:09:16.843Z,37.53
2019-04-25T11:10:16.936Z,36.94
2019-04-25T11:11:16.933Z,36.42
2019-04-25T11:12:16.937Z,36.72
2019-04-25T11:13:16.936Z,37.34
2019-04-25T11:14:16.889Z,37.98
2019-04-25T11:15:16.850Z,39.89
2019-04-25T11:16:16.888Z,39.57
2019-04-25T11:17:16.965Z,39.29
2019-04-25T11:18:16.955Z,38.90
2019-04-25T11:19:16.859Z,39.24
2019-04-25T11:20:16.960Z,39.49
2019-04-25T11:21:16.890Z,40.85
2019-04-25T11:22:16.885Z,41.10
2019-04-25T11:23:16.959Z,38.99
2019-04-25T11:24:16.887Z,37.34
2019-04-25T11:25:16.954Z,38.80
2019-04-25T11:26:16.870Z,38.99
2019-04-25T11:27:16.950Z,37.44
2019-04-25T11:28:16.871Z,36.84
2019-04-25T11:29:16.947Z,36.84
2019-04-25T11:30:16.944Z,38.92
2019-04-25T11:31:16.884Z,38.35
2019-04-25T11:32:19.703Z,37.44
2019-04-25T11:33:16.962Z,39.02
2019-04-25T11:34:16.976Z,37.39
2019-04-25T11:35:16.865Z,37.71
2019-04-25T11:36:16.895Z,38.70
2019-04-25T11:37:16.850Z,37.58
2019-04-25T11:38:16.832Z,38.35
2019-04-25T11:39:16.957Z,38.87
2019-04-25T11:40:16.895Z,36.77
2019-04-25T11:41:16.896Z,36.62
2019-04-25T11:42:16.950Z,38.15
2019-04-25T11:43:16.827Z,38.00
2019-04-25T11:44:16.901Z,38.30
2019-04-25T11:45:16.969Z,37.98
2019-04-25T11:46:16.893Z,37.91
2019-04-25T11:47:16.898Z,37.63
2019-04-25T11:48:16.962Z,37.81
2019-04-25T11:49:16.888Z,38.25
2019-04-25T11:50:16.857Z,37.44
2019-04-25T11:51:16.976Z,38.08
2019-04-25T11:52:26.860Z,37.58
2019-04-25T11:53:16.965Z,38.15
2019-04-25T11:54:16.962Z,37.83
2019-04-25T11:55:16.969Z,38.97
2019-04-25T11:56:16.981Z,37.44
2019-04-25T11:57:17.000Z,37.76
2019-04-25T11:58:16.913Z,38.30
2019-04-25T11:59:16.965Z,40.78
2019-04-25T12:00:22.195Z,37.81
2019-04-25T12:01:16.994Z,38.92
2019-04-25T12:02:16.920Z,37.46
2019-04-25T12:03:16.985Z,37.44
2019-04-25T12:04:16.985Z,39.22
2019-04-25T12:05:16.974Z,39.27
2019-04-25T12:06:16.990Z,38.72
2019-04-25T12:07:16.928Z,38.75
2019-04-25T12:08:16.983Z,36.40
2019-04-25T12:09:16.985Z,37.41
2019-04-25T12:10:16.922Z,37.11
2019-04-25T12:11:16.986Z,38.03
2019-04-25T12:12:16.921Z,37.96
2019-04-25T12:13:16.925Z,38.60
2019-04-25T12:14:16.926Z,38.80
2019-04-25T12:15:17.007Z,37.29
2019-04-25T12:16:16.928Z,38.05
2019-04-25T12:17:17.001Z,39.49
2019-04-25T12:18:17.001Z,37.34
2019-04-25T12:19:16.998Z,38.63
2019-04-25T12:20:17.004Z,37.93
2019-04-25T12:21:16.930Z,37.83
2019-04-25T12:22:16.927Z,38.92
2019-04-25T12:23:16.999Z,39.49
2019-04-25T12:24:16.996Z,37.11
2019-04-25T12:25:16.928Z,37.98
2019-04-25T12:26:16.913Z,37.56
2019-04-25T12:28:16.991Z,37.58
2019-04-25T12:29:16.993Z,39.87
2019-04-25T12:30:16.989Z,38.90
2019-04-25T12:31:16.994Z,39.10
2019-04-25T12:32:16.905Z,38.63
2019-04-25T12:33:21.037Z,38.57
2019-04-25T12:34:16.928Z,38.70
2019-04-25T12:35:17.001Z,40.09
2019-04-25T12:36:17.009Z,38.97
2019-04-25T12:37:16.942Z,38.57
2019-04-25T12:38:16.942Z,37.83
2019-04-25T12:39:16.945Z,38.13
2019-04-25T12:40:17.008Z,36.64
2019-04-25T12:41:16.943Z,36.50
2019-04-25T12:42:16.942Z,37.14
2019-04-25T12:43:17.025Z,37.88
2019-04-25T12:44:17.008Z,36.47
2019-04-25T12:45:16.949Z,38.38
2019-04-25T12:46:17.017Z,38.18
2019-04-25T12:47:16.952Z,38.15
2019-04-25T12:48:17.018Z,37.83
2019-04-25T12:49:17.016Z,38.33
2019-04-25T12:50:18.712Z,38.72
2019-04-25T12:51:17.018Z,38.99
2019-04-25T12:52:16.951Z,39.27
2019-04-25T12:53:17.040Z,37.56